Time,TemperatureF,DewpointF,PressureIn,WindDirection,WindDirectionDegrees,WindSpeedMPH,WindSpeedGustMPH,Humidity,HourlyPrecipIn,Conditions,Clouds,dailyrainin,SoftwareType,DateUTC
2013-02-05 00:01:00,14.7,-2.3,30.20,South,180,5.8,11.0,46,0.00,,,0.00,VWS V14.01,2013-02-05 06:01:00,
2013-02-05 00:07:00,15.1,-1.5,30.20,South,176,12.3,12.3,47,0.00,,,0.00,VWS V14.01,2013-02-05 06:07:00,
2013-02-05 00:11:00,15.3,-1.8,30.20,SSE,162,10.5,11.9,46,0.00,,,0.00,VWS V14.01,2013-02-05 06:11:00,
2013-02-05 00:17:00,15.4,-1.6,30.20,SSW,195,10.1,10.1,46,0.00,,,0.00,VWS V14.01,2013-02-05 06:17:00,
2013-02-05 00:22:00,15.6,-1.0,30.20,SSW,196,7.6,9.2,47,0.00,,,0.00,VWS V14.01,2013-02-05 06:22:00,
2013-02-05 00:27:00,16.0,-1.1,30.20,SSW,195,12.3,12.3,46,0.00,,,0.00,VWS V14.01,2013-02-05 06:27:00,
2013-02-05 00:32:00,16.0,-1.1,30.20,South,181,8.3,8.3,46,0.00,,,0.00,VWS V14.01,2013-02-05 06:32:00,
2013-02-05 00:37:00,16.2,-1.0,30.20,South,173,10.1,10.1,46,0.00,,,0.00,VWS V14.01,2013-02-05 06:37:00,
2013-02-05 00:42:00,16.3,-0.8,30.20,South,183,7.6,8.3,46,0.00,,,0.00,VWS V14.01,2013-02-05 06:42:00,
2013-02-05 00:47:00,16.5,-0.6,30.20,SW,216,10.1,10.1,46,0.00,,,0.00,VWS V14.01,2013-02-05 06:47:00,
2013-02-05 00:52:00,16.7,-0.5,30.20,South,184,7.6,7.6,46,0.00,,,0.00,VWS V14.01,2013-02-05 06:52:00,
2013-02-05 00:57:00,16.9,-0.3,30.20,South,183,7.6,8.1,46,0.00,,,0.00,VWS V14.01,2013-02-05 06:57:00,
2013-02-05 01:02:00,17.2,0.0,30.20,SSW,194,6.3,12.3,46,0.00,,,0.00,VWS V14.01,2013-02-05 07:02:00,
2013-02-05 01:07:00,17.6,0.3,30.20,South,180,8.7,11.0,46,0.00,,,0.00,VWS V14.01,2013-02-05 07:07:00,
2013-02-05 01:12:00,17.8,0.5,30.17,South,177,11.0,11.0,46,0.00,,,0.00,VWS V14.01,2013-02-05 07:12:00,
2013-02-05 01:17:00,18.1,0.4,30.17,South,180,4.0,8.3,45,0.00,,,0.00,VWS V14.01,2013-02-05 07:17:00,
2013-02-05 01:22:00,18.3,0.6,30.17,SSW,212,8.7,12.3,45,0.00,,,0.00,VWS V14.01,2013-02-05 07:22:00,
2013-02-05 01:27:00,18.5,0.7,30.17,South,185,6.3,12.3,45,0.00,,,0.00,VWS V14.01,2013-02-05 07:27:00,
2013-02-05 01:33:00,18.7,0.9,30.17,South,180,6.3,12.3,45,0.00,,,0.00,VWS V14.01,2013-02-05 07:33:00,
2013-02-05 01:38:00,19.0,1.2,30.17,SW,221,10.1,13.6,45,0.00,,,0.00,VWS V14.01,2013-02-05 07:38:00,
2013-02-05 01:43:00,19.2,1.4,30.17,SSW,203,6.3,8.3,45,0.00,,,0.00,VWS V14.01,2013-02-05 07:43:00,
2013-02-05 01:48:00,19.2,0.9,30.17,South,190,5.4,8.3,44,0.00,,,0.00,VWS V14.01,2013-02-05 07:48:00,
2013-02-05 01:53:00,19.0,0.7,30.17,South,190,8.7,8.7,44,0.00,,,0.00,VWS V14.01,2013-02-05 07:53:00,
2013-02-05 01:58:00,19.2,1.4,30.17,South,185,8.1,8.1,45,0.00,,,0.00,VWS V14.01,2013-02-05 07:58:00,
2013-02-05 02:03:00,19.2,1.4,30.17,South,173,6.3,6.3,45,0.00,,,0.00,VWS V14.01,2013-02-05 08:03:00,
2013-02-05 02:08:00,19.0,1.2,30.17,South,180,5.8,7.6,45,0.00,,,0.00,VWS V14.01,2013-02-05 08:08:00,
2013-02-05 02:13:00,19.2,1.4,30.17,South,188,11.0,11.0,45,0.00,,,0.00,VWS V14.01,2013-02-05 08:13:00,
2013-02-05 02:18:00,19.2,1.4,30.17,South,189,5.4,5.8,45,0.00,,,0.00,VWS V14.01,2013-02-05 08:18:00,
2013-02-05 02:23:00,19.4,2.0,30.17,SSE,167,2.7,8.1,46,0.00,,,0.00,VWS V14.01,2013-02-05 08:23:00,
2013-02-05 02:28:00,19.4,2.0,30.17,South,191,5.8,8.1,46,0.00,,,0.00,VWS V14.01,2013-02-05 08:28:00,
2013-02-05 02:34:00,19.8,2.3,30.17,SSW,197,7.6,9.2,46,0.00,,,0.00,VWS V14.01,2013-02-05 08:34:00,
2013-02-05 02:39:00,19.9,2.5,30.17,SSW,205,7.6,9.6,46,0.00,,,0.00,VWS V14.01,2013-02-05 08:39:00,
2013-02-05 02:44:00,20.1,2.7,30.17,SSW,197,5.4,10.1,46,0.00,,,0.00,VWS V14.01,2013-02-05 08:44:00,
2013-02-05 02:49:00,20.3,2.8,30.17,SSE,168,7.6,7.6,46,0.00,,,0.00,VWS V14.01,2013-02-05 08:49:00,
2013-02-05 02:54:00,20.3,2.4,30.17,SSW,198,8.1,8.3,45,0.00,,,0.00,VWS V14.01,2013-02-05 08:54:00,
2013-02-05 02:59:00,20.3,2.4,30.14,SW,217,5.4,8.3,45,0.00,,,0.00,VWS V14.01,2013-02-05 08:59:00,
2013-02-05 03:04:00,20.5,3.0,30.14,South,176,10.5,11.0,46,0.00,,,0.00,VWS V14.01,2013-02-05 09:04:00,
2013-02-05 03:09:00,20.7,2.7,30.14,SW,214,9.2,9.2,45,0.00,,,0.00,VWS V14.01,2013-02-05 09:09:00,
2013-02-05 03:14:00,20.7,2.7,30.17,SSW,193,8.3,9.2,45,0.00,,,0.00,VWS V14.01,2013-02-05 09:14:00,
2013-02-05 03:19:00,20.7,2.7,30.17,South,183,3.1,5.8,45,0.00,,,0.00,VWS V14.01,2013-02-05 09:19:00,
2013-02-05 03:24:00,20.7,2.7,30.17,SW,218,6.3,8.1,45,0.00,,,0.00,VWS V14.01,2013-02-05 09:24:00,
2013-02-05 03:29:00,20.8,2.9,30.14,SSW,198,8.7,8.7,45,0.00,,,0.00,VWS V14.01,2013-02-05 09:29:00,
2013-02-05 03:35:00,20.8,2.9,30.14,SSW,198,4.9,8.3,45,0.00,,,0.00,VWS V14.01,2013-02-05 09:35:00,
2013-02-05 03:40:00,21.2,3.2,30.14,SW,227,8.3,8.7,45,0.00,,,0.00,VWS V14.01,2013-02-05 09:40:00,
2013-02-05 03:45:00,21.2,3.2,30.14,SW,217,6.3,8.3,45,0.00,,,0.00,VWS V14.01,2013-02-05 09:45:00,
2013-02-05 03:50:00,21.4,2.9,30.14,SSW,211,12.3,12.8,44,0.00,,,0.00,VWS V14.01,2013-02-05 09:50:00,
2013-02-05 03:55:00,21.6,3.0,30.14,South,185,10.1,10.1,44,0.00,,,0.00,VWS V14.01,2013-02-05 09:55:00,
2013-02-05 04:00:00,21.7,3.2,30.14,SW,216,5.4,8.1,44,0.00,,,0.00,VWS V14.01,2013-02-05 10:00:00,
2013-02-05 04:05:00,21.9,3.4,30.14,SW,229,11.0,11.0,44,0.00,,,0.00,VWS V14.01,2013-02-05 10:05:00,
2013-02-05 04:10:00,22.8,4.7,30.14,SW,219,8.1,12.3,45,0.00,,,0.00,VWS V14.01,2013-02-05 10:10:00,
2013-02-05 04:15:00,23.2,4.0,30.14,SW,229,10.5,10.5,43,0.00,,,0.00,VWS V14.01,2013-02-05 10:15:00,
2013-02-05 04:20:00,23.2,4.0,30.14,SSW,208,4.0,7.6,43,0.00,,,0.00,VWS V14.01,2013-02-05 10:20:00,
2013-02-05 04:25:00,23.5,4.8,30.14,SW,224,7.6,8.7,44,0.00,,,0.00,VWS V14.01,2013-02-05 10:25:00,
2013-02-05 04:30:00,23.5,6.3,30.14,SW,230,8.7,10.5,47,0.00,,,0.00,VWS V14.01,2013-02-05 10:30:00,
2013-02-05 04:35:00,23.7,8.2,30.14,SW,223,8.7,8.7,51,0.00,,,0.00,VWS V14.01,2013-02-05 10:35:00,
2013-02-05 04:41:00,23.7,8.7,30.14,WSW,246,8.7,8.7,52,0.00,,,0.00,VWS V14.01,2013-02-05 10:41:00,
2013-02-05 04:46:00,23.9,9.3,30.14,WSW,238,4.9,4.9,53,0.00,,,0.00,VWS V14.01,2013-02-05 10:46:00,
2013-02-05 04:51:00,23.9,9.7,30.14,SSW,205,6.3,8.1,54,0.00,,,0.00,VWS V14.01,2013-02-05 10:51:00,
2013-02-05 04:56:00,24.1,10.3,30.14,SW,221,6.3,6.3,55,0.00,,,0.00,VWS V14.01,2013-02-05 10:56:00,
2013-02-05 05:01:00,24.1,10.3,30.14,West,263,4.0,4.9,55,0.00,,,0.00,VWS V14.01,2013-02-05 11:01:00,
2013-02-05 05:06:00,24.1,10.3,30.14,SSW,210,8.3,8.3,55,0.00,,,0.00,VWS V14.01,2013-02-05 11:06:00,
2013-02-05 05:11:00,24.3,10.4,30.14,WNW,288,5.4,5.4,55,0.00,,,0.00,VWS V14.01,2013-02-05 11:11:00,
2013-02-05 05:16:00,24.3,10.4,30.14,SW,221,7.6,8.1,55,0.00,,,0.00,VWS V14.01,2013-02-05 11:16:00,
2013-02-05 05:21:00,24.3,10.4,30.14,SSW,206,8.7,8.7,55,0.00,,,0.00,VWS V14.01,2013-02-05 11:21:00,
2013-02-05 05:26:00,24.4,10.6,30.14,WSW,246,5.4,6.3,55,0.00,,,0.00,VWS V14.01,2013-02-05 11:26:00,
2013-02-05 05:31:00,24.4,10.6,30.14,SW,222,3.6,8.7,55,0.00,,,0.00,VWS V14.01,2013-02-05 11:31:00,
2013-02-05 05:36:00,24.4,10.6,30.14,SW,232,8.3,8.3,55,0.00,,,0.00,VWS V14.01,2013-02-05 11:36:00,
2013-02-05 05:41:00,24.4,10.6,30.17,West,277,4.0,4.0,55,0.00,,,0.00,VWS V14.01,2013-02-05 11:41:00,
2013-02-05 05:47:00,24.6,10.8,30.17,SW,233,3.6,3.6,55,0.00,,,0.00,VWS V14.01,2013-02-05 11:47:00,
2013-02-05 05:52:00,24.8,10.9,30.17,WNW,283,3.1,3.1,55,0.00,,,0.00,VWS V14.01,2013-02-05 11:52:00,
2013-02-05 05:57:00,24.8,10.9,30.14,SW,222,3.6,5.8,55,0.00,,,0.00,VWS V14.01,2013-02-05 11:57:00,
2013-02-05 06:02:00,25.0,10.7,30.14,WSW,237,7.6,8.1,54,0.00,,,0.00,VWS V14.01,2013-02-05 12:02:00,
2013-02-05 06:07:00,25.0,10.7,30.14,WSW,237,5.8,5.8,54,0.00,,,0.00,VWS V14.01,2013-02-05 12:07:00,
2013-02-05 06:12:00,25.3,11.0,30.17,SW,221,4.9,8.1,54,0.00,,,0.00,VWS V14.01,2013-02-05 12:12:00,
2013-02-05 06:17:00,25.3,11.0,30.17,SW,220,2.7,3.6,54,0.00,,,0.00,VWS V14.01,2013-02-05 12:17:00,
2013-02-05 06:22:00,25.2,10.9,30.17,WSW,241,4.0,4.0,54,0.00,,,0.00,VWS V14.01,2013-02-05 12:22:00,
2013-02-05 06:27:00,25.2,10.4,30.17,WSW,246,3.6,4.9,53,0.00,,,0.00,VWS V14.01,2013-02-05 12:27:00,
2013-02-05 06:32:00,25.2,10.4,30.17,WSW,252,4.0,5.8,53,0.00,,,0.00,VWS V14.01,2013-02-05 12:32:00,
2013-02-05 06:37:00,25.0,10.3,30.17,West,263,4.0,5.8,53,0.00,,,0.00,VWS V14.01,2013-02-05 12:37:00,
2013-02-05 06:42:00,25.2,10.9,30.17,SW,234,3.6,5.8,54,0.00,,,0.00,VWS V14.01,2013-02-05 12:42:00,
2013-02-05 06:47:00,25.2,10.9,30.17,West,261,3.6,4.0,54,0.00,,,0.00,VWS V14.01,2013-02-05 12:47:00,
2013-02-05 06:52:00,25.3,11.0,30.17,WSW,252,0.0,3.1,54,0.00,,,0.00,VWS V14.01,2013-02-05 12:52:00,
2013-02-05 06:58:00,25.5,11.2,30.17,West,275,2.2,3.1,54,0.00,,,0.00,VWS V14.01,2013-02-05 12:58:00,
2013-02-05 07:03:00,25.5,11.2,30.17,WSW,256,0.0,3.1,54,0.00,,,0.00,VWS V14.01,2013-02-05 13:03:00,
2013-02-05 07:08:00,25.5,11.2,30.17,SW,214,2.7,2.7,54,0.00,,,0.00,VWS V14.01,2013-02-05 13:08:00,
2013-02-05 07:13:00,25.5,11.2,30.20,SW,234,0.0,0.0,54,0.00,,,0.00,VWS V14.01,2013-02-05 13:13:00,
2013-02-05 07:18:00,25.5,11.2,30.20,WSW,238,3.1,4.0,54,0.00,,,0.00,VWS V14.01,2013-02-05 13:18:00,
2013-02-05 07:23:00,25.5,11.2,30.20,WSW,244,3.1,3.1,54,0.00,,,0.00,VWS V14.01,2013-02-05 13:23:00,
2013-02-05 07:28:00,25.7,11.4,30.20,WSW,253,5.8,5.8,54,0.00,,,0.00,VWS V14.01,2013-02-05 13:28:00,
2013-02-05 07:33:00,25.9,11.5,30.20,West,271,2.7,3.6,54,0.00,,,0.00,VWS V14.01,2013-02-05 13:33:00,
2013-02-05 07:38:00,25.9,11.5,30.20,WNW,284,6.3,6.3,54,0.00,,,0.00,VWS V14.01,2013-02-05 13:38:00,
2013-02-05 07:43:00,26.1,11.7,30.20,WSW,254,3.1,4.0,54,0.00,,,0.00,VWS V14.01,2013-02-05 13:43:00,
2013-02-05 07:48:00,26.4,12.0,30.20,WNW,283,5.8,6.3,54,0.00,,,0.00,VWS V14.01,2013-02-05 13:48:00,
2013-02-05 07:53:00,27.0,12.6,30.20,NW,321,6.3,6.3,54,0.00,,,0.00,VWS V14.01,2013-02-05 13:53:00,
2013-02-05 07:58:00,27.3,12.5,30.20,NW,321,8.7,8.7,53,0.00,,,0.00,VWS V14.01,2013-02-05 13:58:00,
2013-02-05 08:04:00,27.7,11.9,30.20,NNW,330,4.0,8.3,51,0.00,,,0.00,VWS V14.01,2013-02-05 14:04:00,
2013-02-05 08:09:00,27.7,10.1,30.20,NNW,343,7.6,8.3,47,0.00,,,0.00,VWS V14.01,2013-02-05 14:09:00,
2013-02-05 08:14:00,27.7,7.6,30.23,NW,311,14.5,14.5,42,0.00,,,0.00,VWS V14.01,2013-02-05 14:14:00,
2013-02-05 08:19:00,27.9,7.2,30.23,NW,321,8.1,10.5,41,0.00,,,0.00,VWS V14.01,2013-02-05 14:19:00,
2013-02-05 08:24:00,27.9,7.2,30.23,NNW,346,11.0,11.0,41,0.00,,,0.00,VWS V14.01,2013-02-05 14:24:00,
2013-02-05 08:29:00,27.9,6.1,30.23,NW,323,12.3,12.8,39,0.00,,,0.00,VWS V14.01,2013-02-05 14:29:00,
2013-02-05 08:34:00,27.9,5.6,30.23,NW,319,8.7,10.1,38,0.00,,,0.00,VWS V14.01,2013-02-05 14:34:00,
2013-02-05 08:39:00,27.9,5.6,30.23,NNW,338,12.8,12.8,38,0.00,,,0.00,VWS V14.01,2013-02-05 14:39:00,
2013-02-05 08:44:00,27.9,5.0,30.23,NNW,343,6.3,8.1,37,0.00,,,0.00,VWS V14.01,2013-02-05 14:44:00,
2013-02-05 08:49:00,27.9,4.4,30.23,North,350,8.1,8.1,36,0.00,,,0.00,VWS V14.01,2013-02-05 14:49:00,
2013-02-05 08:54:00,27.9,4.4,30.23,NNW,330,10.5,11.0,36,0.00,,,0.00,VWS V14.01,2013-02-05 14:54:00,
2013-02-05 08:59:00,27.9,3.8,30.26,NW,306,5.8,8.1,35,0.00,,,0.00,VWS V14.01,2013-02-05 14:59:00,
2013-02-05 09:04:00,27.9,4.4,30.26,WNW,294,8.7,8.7,36,0.00,,,0.00,VWS V14.01,2013-02-05 15:04:00,
2013-02-05 09:10:00,27.9,4.4,30.26,NW,308,12.8,12.8,36,0.00,,,0.00,VWS V14.01,2013-02-05 15:10:00,
2013-02-05 09:15:00,27.9,3.8,30.26,NNW,329,13.2,13.2,35,0.00,,,0.00,VWS V14.01,2013-02-05 15:15:00,
2013-02-05 09:20:00,27.9,3.2,30.26,WNW,303,10.1,14.5,34,0.00,,,0.00,VWS V14.01,2013-02-05 15:20:00,
2013-02-05 09:25:00,27.9,3.2,30.26,North,353,6.7,6.7,34,0.00,,,0.00,VWS V14.01,2013-02-05 15:25:00,
2013-02-05 09:30:00,27.9,3.2,30.26,NNW,343,6.3,6.3,34,0.00,,,0.00,VWS V14.01,2013-02-05 15:30:00,
2013-02-05 09:35:00,27.9,3.2,30.26,NNW,336,8.7,8.7,34,0.00,,,0.00,VWS V14.01,2013-02-05 15:35:00,
2013-02-05 09:40:00,27.9,3.2,30.26,NNW,346,9.6,9.6,34,0.00,,,0.00,VWS V14.01,2013-02-05 15:40:00,
2013-02-05 09:45:00,27.9,2.5,30.26,NW,313,10.1,11.0,33,0.00,,,0.00,VWS V14.01,2013-02-05 15:45:00,
2013-02-05 09:50:00,27.7,2.3,30.26,NNW,338,13.2,18.3,33,0.00,,,0.00,VWS V14.01,2013-02-05 15:50:00,
2013-02-05 09:55:00,27.9,2.5,30.29,NNW,342,12.8,12.8,33,0.00,,,0.00,VWS V14.01,2013-02-05 15:55:00,
2013-02-05 10:00:00,27.9,2.5,30.29,NNW,335,13.2,13.2,33,0.00,,,0.00,VWS V14.01,2013-02-05 16:00:00,
2013-02-05 10:05:00,27.7,1.7,30.29,NNW,340,11.0,13.2,32,0.00,,,0.00,VWS V14.01,2013-02-05 16:05:00,
2013-02-05 10:10:00,27.7,2.3,30.29,NNW,331,4.0,10.5,33,0.00,,,0.00,VWS V14.01,2013-02-05 16:10:00,
2013-02-05 10:16:00,27.9,2.5,30.29,NW,321,8.7,10.1,33,0.00,,,0.00,VWS V14.01,2013-02-05 16:16:00,
2013-02-05 10:21:00,27.9,2.5,30.29,North,353,7.6,10.1,33,0.00,,,0.00,VWS V14.01,2013-02-05 16:21:00,
2013-02-05 10:26:00,27.9,2.5,30.29,NNE,16,4.0,11.0,33,0.00,,,0.00,VWS V14.01,2013-02-05 16:26:00,
2013-02-05 10:31:00,27.9,2.5,30.29,NNW,337,3.6,7.6,33,0.00,,,0.00,VWS V14.01,2013-02-05 16:31:00,
2013-02-05 10:36:00,27.9,2.5,30.29,NW,325,12.8,12.8,33,0.00,,,0.00,VWS V14.01,2013-02-05 16:36:00,
2013-02-05 10:41:00,27.9,2.5,30.32,NNW,343,8.3,8.3,33,0.00,,,0.00,VWS V14.01,2013-02-05 16:41:00,
2013-02-05 10:46:00,27.9,2.5,30.32,NNW,337,6.3,6.3,33,0.00,,,0.00,VWS V14.01,2013-02-05 16:46:00,
2013-02-05 10:51:00,27.9,2.5,30.32,NW,326,10.1,10.1,33,0.00,,,0.00,VWS V14.01,2013-02-05 16:51:00,
2013-02-05 10:56:00,27.9,3.2,30.32,North,353,4.0,4.9,34,0.00,,,0.00,VWS V14.01,2013-02-05 16:56:00,
2013-02-05 11:01:00,27.7,3.0,30.32,North,353,7.6,7.6,34,0.00,,,0.00,VWS V14.01,2013-02-05 17:01:00,
2013-02-05 11:06:00,27.3,2.7,30.32,NNE,21,7.6,13.2,34,0.00,,,0.00,VWS V14.01,2013-02-05 17:06:00,
2013-02-05 11:11:00,27.3,3.3,30.35,North,1,6.3,7.6,35,0.00,,,0.00,VWS V14.01,2013-02-05 17:11:00,
2013-02-05 11:16:00,27.3,3.3,30.35,WNW,298,7.6,8.7,35,0.00,,,0.00,VWS V14.01,2013-02-05 17:16:00,
2013-02-05 11:21:00,27.1,3.1,30.35,NNW,341,11.0,11.0,35,0.00,,,0.00,VWS V14.01,2013-02-05 17:21:00,
2013-02-05 11:26:00,27.1,2.5,30.32,NNW,328,6.3,9.6,34,0.00,,,0.00,VWS V14.01,2013-02-05 17:26:00,
2013-02-05 11:31:00,27.7,2.3,30.32,NNW,341,8.3,10.5,33,0.00,,,0.00,VWS V14.01,2013-02-05 17:31:00,
2013-02-05 11:36:00,27.3,0.7,30.32,NNW,338,15.4,15.4,31,0.00,,,0.00,VWS V14.01,2013-02-05 17:36:00,
2013-02-05 11:41:00,27.3,0.7,30.35,NW,323,8.3,10.1,31,0.00,,,0.00,VWS V14.01,2013-02-05 17:41:00,
2013-02-05 11:46:00,27.7,1.0,30.35,North,353,10.5,10.5,31,0.00,,,0.00,VWS V14.01,2013-02-05 17:46:00,
2013-02-05 11:51:00,27.7,-2.7,30.35,North,6,12.8,12.8,26,0.00,,,0.00,VWS V14.01,2013-02-05 17:51:00,
2013-02-05 11:56:00,27.1,-3.2,30.35,North,0,12.8,15.0,26,0.00,,,0.00,VWS V14.01,2013-02-05 17:56:00,
2013-02-05 12:01:00,27.1,-5.7,30.35,North,349,11.0,17.9,23,0.00,,,0.00,VWS V14.01,2013-02-05 18:01:00,
2013-02-05 12:06:00,27.0,-5.9,30.35,NNW,340,10.5,15.4,23,0.00,,,0.00,VWS V14.01,2013-02-05 18:06:00,
2013-02-05 12:11:00,27.0,-5.9,30.35,NW,322,8.3,10.5,23,0.00,,,0.00,VWS V14.01,2013-02-05 18:11:00,
2013-02-05 12:16:00,27.0,-7.8,30.35,NNE,14,10.5,10.5,21,0.00,,,0.00,VWS V14.01,2013-02-05 18:16:00,
2013-02-05 12:21:00,27.0,-7.8,30.35,NW,324,10.5,10.5,21,0.00,,,0.00,VWS V14.01,2013-02-05 18:21:00,
2013-02-05 12:26:00,26.8,-7.9,30.35,North,357,11.0,13.2,21,0.00,,,0.00,VWS V14.01,2013-02-05 18:26:00,
2013-02-05 12:31:00,27.0,-7.8,30.35,North,0,10.1,10.1,21,0.00,,,0.00,VWS V14.01,2013-02-05 18:31:00,
2013-02-05 12:36:00,26.6,-8.1,30.35,NNE,24,8.1,10.1,21,0.00,,,0.00,VWS V14.01,2013-02-05 18:36:00,
2013-02-05 12:41:00,26.8,-7.9,30.35,North,353,8.7,11.0,21,0.00,,,0.00,VWS V14.01,2013-02-05 18:41:00,
2013-02-05 12:46:00,26.4,-8.2,30.35,NNW,340,8.3,13.2,21,0.00,,,0.00,VWS V14.01,2013-02-05 18:46:00,
2013-02-05 12:51:00,26.1,-8.5,30.35,NNW,328,14.1,16.8,21,0.00,,,0.00,VWS V14.01,2013-02-05 18:51:00,
2013-02-05 12:57:00,25.9,-8.7,30.38,NW,320,15.0,17.4,21,0.00,,,0.00,VWS V14.01,2013-02-05 18:57:00,
2013-02-05 13:02:00,26.1,-8.5,30.38,NW,318,8.7,13.2,21,0.00,,,0.00,VWS V14.01,2013-02-05 19:02:00,
2013-02-05 13:07:00,25.9,-10.7,30.38,NNW,336,14.5,14.5,19,0.00,,,0.00,VWS V14.01,2013-02-05 19:07:00,
2013-02-05 13:12:00,25.9,-10.7,30.38,NW,306,6.3,11.0,19,0.00,,,0.00,VWS V14.01,2013-02-05 19:12:00,
2013-02-05 13:17:00,25.9,-10.7,30.38,NNW,345,9.6,12.8,19,0.00,,,0.00,VWS V14.01,2013-02-05 19:17:00,
2013-02-05 13:22:00,25.9,-10.7,30.38,NNW,328,10.5,10.5,19,0.00,,,0.00,VWS V14.01,2013-02-05 19:22:00,
2013-02-05 13:27:00,25.7,-10.9,30.38,NW,316,11.0,11.0,19,0.00,,,0.00,VWS V14.01,2013-02-05 19:27:00,
2013-02-05 13:32:00,25.9,-10.7,30.38,NNW,332,8.7,8.7,19,0.00,,,0.00,VWS V14.01,2013-02-05 19:32:00,
2013-02-05 13:37:00,25.7,-10.9,30.38,NNW,346,8.7,10.1,19,0.00,,,0.00,VWS V14.01,2013-02-05 19:37:00,
2013-02-05 13:42:00,25.7,-10.9,30.41,NNW,335,15.0,15.0,19,0.00,,,0.00,VWS V14.01,2013-02-05 19:42:00,
2013-02-05 13:47:00,25.5,-11.0,30.41,NW,314,13.2,13.2,19,0.00,,,0.00,VWS V14.01,2013-02-05 19:47:00,
2013-02-05 13:52:00,25.7,-10.9,30.41,NNE,33,12.3,15.4,19,0.00,,,0.00,VWS V14.01,2013-02-05 19:52:00,
2013-02-05 13:57:00,25.5,-11.0,30.41,NNW,344,9.6,12.8,19,0.00,,,0.00,VWS V14.01,2013-02-05 19:57:00,
2013-02-05 14:02:00,25.3,-11.1,30.41,West,278,12.8,12.8,19,0.00,,,0.00,VWS V14.01,2013-02-05 20:02:00,
2013-02-05 14:07:00,25.0,-11.4,30.41,NW,308,5.4,8.3,19,0.00,,,0.00,VWS V14.01,2013-02-05 20:07:00,
2013-02-05 14:12:00,25.0,-11.4,30.41,West,260,8.7,11.0,19,0.00,,,0.00,VWS V14.01,2013-02-05 20:12:00,
2013-02-05 14:17:00,24.8,-11.6,30.41,NW,319,12.8,12.8,19,0.00,,,0.00,VWS V14.01,2013-02-05 20:17:00,
2013-02-05 14:22:00,25.2,-11.3,30.41,NW,322,8.7,8.7,19,0.00,,,0.00,VWS V14.01,2013-02-05 20:22:00,
2013-02-05 14:27:00,25.0,-11.4,30.41,West,276,10.1,10.1,19,0.00,,,0.00,VWS V14.01,2013-02-05 20:27:00,
2013-02-05 14:32:00,24.8,-11.6,30.41,WNW,292,6.3,13.2,19,0.00,,,0.00,VWS V14.01,2013-02-05 20:32:00,
2013-02-05 14:38:00,24.4,-11.9,30.41,WNW,282,11.0,11.0,19,0.00,,,0.00,VWS V14.01,2013-02-05 20:38:00,
2013-02-05 14:43:00,24.8,-11.6,30.41,NW,313,10.1,10.1,19,0.00,,,0.00,VWS V14.01,2013-02-05 20:43:00,
2013-02-05 14:48:00,24.6,-11.8,30.41,NNW,327,12.3,12.8,19,0.00,,,0.00,VWS V14.01,2013-02-05 20:48:00,
2013-02-05 14:53:00,24.6,-11.8,30.41,WNW,284,13.2,13.2,19,0.00,,,0.00,VWS V14.01,2013-02-05 20:53:00,
2013-02-05 14:58:00,24.6,-11.8,30.44,NW,317,7.6,7.6,19,0.00,,,0.00,VWS V14.01,2013-02-05 20:58:00,
2013-02-05 15:03:00,24.6,-11.8,30.44,NW,310,8.7,10.5,19,0.00,,,0.00,VWS V14.01,2013-02-05 21:03:00,
2013-02-05 15:08:00,24.4,-11.9,30.44,NNW,341,8.1,11.0,19,0.00,,,0.00,VWS V14.01,2013-02-05 21:08:00,
2013-02-05 15:13:00,24.4,-11.9,30.44,NNW,328,10.5,10.5,19,0.00,,,0.00,VWS V14.01,2013-02-05 21:13:00,
2013-02-05 15:18:00,24.4,-14.1,30.44,North,8,11.0,13.2,17,0.00,,,0.00,VWS V14.01,2013-02-05 21:18:00,
2013-02-05 15:23:00,24.4,-14.1,30.44,NW,314,7.2,8.1,17,0.00,,,0.00,VWS V14.01,2013-02-05 21:23:00,
2013-02-05 15:28:00,24.4,-14.1,30.44,NW,304,10.5,10.5,17,0.00,,,0.00,VWS V14.01,2013-02-05 21:28:00,
2013-02-05 15:33:00,24.1,-14.4,30.44,WNW,283,8.3,10.5,17,0.00,,,0.00,VWS V14.01,2013-02-05 21:33:00,
2013-02-05 15:38:00,24.1,-14.4,30.44,NW,313,10.5,10.5,17,0.00,,,0.00,VWS V14.01,2013-02-05 21:38:00,
2013-02-05 15:43:00,23.9,-14.6,30.44,NNW,330,7.6,7.6,17,0.00,,,0.00,VWS V14.01,2013-02-05 21:43:00,
2013-02-05 15:48:00,23.7,-14.7,30.44,North,353,8.1,8.1,17,0.00,,,0.00,VWS V14.01,2013-02-05 21:48:00,
2013-02-05 15:53:00,24.1,-14.4,30.44,WNW,286,8.1,8.1,17,0.00,,,0.00,VWS V14.01,2013-02-05 21:53:00,
2013-02-05 15:58:00,24.1,-14.4,30.44,NW,306,8.3,8.3,17,0.00,,,0.00,VWS V14.01,2013-02-05 21:58:00,
2013-02-05 16:03:00,24.3,-14.3,30.44,WNW,287,6.3,8.7,17,0.00,,,0.00,VWS V14.01,2013-02-05 22:03:00,
2013-02-05 16:08:00,23.9,-14.6,30.44,NW,315,6.3,8.7,17,0.00,,,0.00,VWS V14.01,2013-02-05 22:08:00,
2013-02-05 16:13:00,23.7,-14.7,30.47,WNW,302,7.6,8.3,17,0.00,,,0.00,VWS V14.01,2013-02-05 22:13:00,
2013-02-05 16:18:00,23.7,-14.7,30.47,West,271,5.8,5.8,17,0.00,,,0.00,VWS V14.01,2013-02-05 22:18:00,
2013-02-05 16:23:00,23.5,-14.9,30.47,NW,311,6.3,8.7,17,0.00,,,0.00,VWS V14.01,2013-02-05 22:23:00,
2013-02-05 16:28:00,23.5,-14.9,30.47,West,274,6.3,7.6,17,0.00,,,0.00,VWS V14.01,2013-02-05 22:28:00,
2013-02-05 16:33:00,23.5,-14.9,30.47,WNW,292,5.4,6.3,17,0.00,,,0.00,VWS V14.01,2013-02-05 22:33:00,
2013-02-05 16:38:00,23.4,-15.0,30.47,WNW,294,5.4,7.6,17,0.00,,,0.00,VWS V14.01,2013-02-05 22:38:00,
2013-02-05 16:44:00,23.2,-15.2,30.44,WNW,297,3.1,5.8,17,0.00,,,0.00,VWS V14.01,2013-02-05 22:44:00,
2013-02-05 16:49:00,23.2,-15.2,30.44,WNW,293,5.8,6.3,17,0.00,,,0.00,VWS V14.01,2013-02-05 22:49:00,
2013-02-05 16:53:00,23.0,-15.3,30.44,NW,325,5.4,5.8,17,0.00,,,0.00,VWS V14.01,2013-02-05 22:53:00,
2013-02-05 16:59:00,22.8,-15.4,30.47,West,271,4.0,5.4,17,0.00,,,0.00,VWS V14.01,2013-02-05 22:59:00,
2013-02-05 17:04:00,22.5,-15.8,30.47,West,279,3.6,5.4,17,0.00,,,0.00,VWS V14.01,2013-02-05 23:04:00,
2013-02-05 17:09:00,22.1,-16.0,30.47,West,269,4.9,4.9,17,0.00,,,0.00,VWS V14.01,2013-02-05 23:09:00,
2013-02-05 17:14:00,21.7,-16.4,30.47,West,277,4.0,5.4,17,0.00,,,0.00,VWS V14.01,2013-02-05 23:14:00,
2013-02-05 17:19:00,21.4,-16.6,30.47,West,276,5.4,5.4,17,0.00,,,0.00,VWS V14.01,2013-02-05 23:19:00,
2013-02-05 17:24:00,21.2,-16.8,30.47,WNW,301,5.8,5.8,17,0.00,,,0.00,VWS V14.01,2013-02-05 23:24:00,
2013-02-05 17:29:00,21.0,-16.9,30.47,WNW,302,3.6,3.6,17,0.00,,,0.00,VWS V14.01,2013-02-05 23:29:00,
2013-02-05 17:34:00,20.8,-17.1,30.47,West,280,4.5,4.9,17,0.00,,,0.00,VWS V14.01,2013-02-05 23:34:00,
2013-02-05 17:39:00,20.7,-17.2,30.47,NW,325,3.1,3.1,17,0.00,,,0.00,VWS V14.01,2013-02-05 23:39:00,
2013-02-05 17:44:00,20.7,-17.2,30.47,NW,324,5.4,5.4,17,0.00,,,0.00,VWS V14.01,2013-02-05 23:44:00,
2013-02-05 17:49:00,20.5,-17.4,30.47,NW,314,4.0,4.0,17,0.00,,,0.00,VWS V14.01,2013-02-05 23:49:00,
2013-02-05 17:54:00,20.3,-17.5,30.47,NW,316,4.0,4.0,17,0.00,,,0.00,VWS V14.01,2013-02-05 23:54:00,
2013-02-05 17:59:00,20.3,-17.5,30.50,NW,306,3.6,4.0,17,0.00,,,0.00,VWS V14.01,2013-02-05 23:59:00,
2013-02-05 18:04:00,20.1,-17.7,30.50,NW,316,2.7,4.0,17,0.00,,,0.00,VWS V14.01,2013-02-06 00:04:00,
2013-02-05 18:09:00,19.8,-18.0,30.50,WNW,282,4.9,4.9,17,0.00,,,0.00,VWS V14.01,2013-02-06 00:09:00,
2013-02-05 18:14:00,19.4,-17.2,30.50,NW,306,2.2,4.0,18,0.00,,,0.00,VWS V14.01,2013-02-06 00:14:00,
2013-02-05 18:19:00,19.0,-17.5,30.50,NW,313,2.7,4.0,18,0.00,,,0.00,VWS V14.01,2013-02-06 00:19:00,
2013-02-05 18:24:00,18.7,-17.8,30.50,NW,313,3.1,3.6,18,0.00,,,0.00,VWS V14.01,2013-02-06 00:24:00,
2013-02-05 18:29:00,18.7,-17.8,30.50,NW,317,4.0,4.0,18,0.00,,,0.00,VWS V14.01,2013-02-06 00:29:00,
2013-02-05 18:35:00,18.7,-17.8,30.50,NW,318,4.0,5.4,18,0.00,,,0.00,VWS V14.01,2013-02-06 00:35:00,
2013-02-05 18:40:00,18.5,-17.9,30.50,NW,320,4.0,5.4,18,0.00,,,0.00,VWS V14.01,2013-02-06 00:40:00,
2013-02-05 18:45:00,18.1,-18.2,30.50,North,353,6.3,6.3,18,0.00,,,0.00,VWS V14.01,2013-02-06 00:45:00,
2013-02-05 18:50:00,18.1,-18.2,30.50,NNW,339,4.9,5.4,18,0.00,,,0.00,VWS V14.01,2013-02-06 00:50:00,
2013-02-05 18:55:00,18.1,-18.2,30.50,NNW,346,3.6,4.9,18,0.00,,,0.00,VWS V14.01,2013-02-06 00:55:00,
2013-02-05 19:00:00,18.1,-18.2,30.50,NNW,342,3.1,4.0,18,0.00,,,0.00,VWS V14.01,2013-02-06 01:00:00,
2013-02-05 19:05:00,18.0,-18.4,30.50,NNW,342,3.1,3.6,18,0.00,,,0.00,VWS V14.01,2013-02-06 01:05:00,
2013-02-05 19:10:00,17.6,-18.7,30.50,NNW,342,3.1,3.1,18,0.00,,,0.00,VWS V14.01,2013-02-06 01:10:00,
2013-02-05 19:15:00,17.4,-18.8,30.53,NNW,342,2.7,3.1,18,0.00,,,0.00,VWS V14.01,2013-02-06 01:15:00,
2013-02-05 19:20:00,16.9,-19.3,30.53,NNW,342,2.7,2.7,18,0.00,,,0.00,VWS V14.01,2013-02-06 01:20:00,
2013-02-05 19:25:00,16.0,-20.0,30.53,NNW,331,2.7,3.6,18,0.00,,,0.00,VWS V14.01,2013-02-06 01:25:00,
2013-02-05 19:30:00,15.4,-19.4,30.53,NNW,331,0.0,2.2,19,0.00,,,0.00,VWS V14.01,2013-02-06 01:30:00,
2013-02-05 19:35:00,14.9,-19.9,30.53,NNW,331,0.0,0.0,19,0.00,,,0.00,VWS V14.01,2013-02-06 01:35:00,
2013-02-05 19:40:00,14.2,-20.5,30.53,NNW,331,0.0,0.0,19,0.00,,,0.00,VWS V14.01,2013-02-06 01:40:00,
2013-02-05 19:45:00,12.9,-21.6,30.53,NNW,331,0.0,0.0,19,0.00,,,0.00,VWS V14.01,2013-02-06 01:45:00,
2013-02-05 19:50:00,11.5,-22.8,30.53,NNW,329,0.0,0.0,19,0.00,,,0.00,VWS V14.01,2013-02-06 01:50:00,
2013-02-05 19:55:00,11.3,-22.9,30.53,NNW,329,0.0,0.0,19,0.00,,,0.00,VWS V14.01,2013-02-06 01:55:00,
2013-02-05 20:00:00,11.3,-22.9,30.53,NNW,329,0.0,0.0,19,0.00,,,0.00,VWS V14.01,2013-02-06 02:00:00,
2013-02-05 20:05:00,10.9,-23.2,30.53,NNW,329,0.0,0.0,19,0.00,,,0.00,VWS V14.01,2013-02-06 02:05:00,
2013-02-05 20:11:00,9.9,-24.1,30.53,NNW,329,0.0,0.0,19,0.00,,,0.00,VWS V14.01,2013-02-06 02:11:00,
2013-02-05 20:16:00,9.3,-24.6,30.53,NNW,329,0.0,0.0,19,0.00,,,0.00,VWS V14.01,2013-02-06 02:16:00,
2013-02-05 20:21:00,9.3,-24.6,30.53,NNW,329,0.0,0.0,19,0.00,,,0.00,VWS V14.01,2013-02-06 02:21:00,
2013-02-05 20:26:00,9.3,-24.6,30.53,NNW,329,0.0,0.0,19,0.00,,,0.00,VWS V14.01,2013-02-06 02:26:00,
2013-02-05 20:31:00,9.1,-24.7,30.53,NNW,328,0.0,0.0,19,0.00,,,0.00,VWS V14.01,2013-02-06 02:31:00,
2013-02-05 20:36:00,9.5,-24.4,30.53,NNW,328,0.0,0.0,19,0.00,,,0.00,VWS V14.01,2013-02-06 02:36:00,
2013-02-05 20:41:00,9.3,-24.6,30.53,SW,217,0.0,0.0,19,0.00,,,0.00,VWS V14.01,2013-02-06 02:41:00,
2013-02-05 20:46:00,9.1,-24.7,30.53,SW,224,0.0,0.0,19,0.00,,,0.00,VWS V14.01,2013-02-06 02:46:00,
2013-02-05 20:51:00,9.3,-24.6,30.53,SW,224,2.7,3.6,19,0.00,,,0.00,VWS V14.01,2013-02-06 02:51:00,
2013-02-05 20:56:00,9.5,-24.4,30.53,WSW,247,4.9,5.4,19,0.00,,,0.00,VWS V14.01,2013-02-06 02:56:00,
2013-02-05 21:01:00,10.8,-23.4,30.53,West,259,3.6,3.6,19,0.00,,,0.00,VWS V14.01,2013-02-06 03:01:00,
2013-02-05 21:06:00,10.9,-23.2,30.53,WSW,243,4.9,4.9,19,0.00,,,0.00,VWS V14.01,2013-02-06 03:06:00,
2013-02-05 21:11:00,10.9,-23.2,30.55,WSW,256,3.6,3.6,19,0.00,,,0.00,VWS V14.01,2013-02-06 03:11:00,
2013-02-05 21:16:00,10.8,-23.4,30.55,SW,214,3.1,3.1,19,0.00,,,0.00,VWS V14.01,2013-02-06 03:16:00,
2013-02-05 21:21:00,10.0,-24.0,30.55,SW,214,0.0,0.0,19,0.00,,,0.00,VWS V14.01,2013-02-06 03:21:00,
2013-02-05 21:26:00,9.9,-24.1,30.55,SW,214,0.0,0.0,19,0.00,,,0.00,VWS V14.01,2013-02-06 03:26:00,
2013-02-05 21:31:00,9.9,-24.1,30.55,SW,215,0.0,0.0,19,0.00,,,0.00,VWS V14.01,2013-02-06 03:31:00,
2013-02-05 21:36:00,9.5,-24.4,30.55,South,174,0.0,0.0,19,0.00,,,0.00,VWS V14.01,2013-02-06 03:36:00,
2013-02-05 21:41:00,8.8,-25.0,30.53,SSE,160,3.6,4.0,19,0.00,,,0.00,VWS V14.01,2013-02-06 03:41:00,
2013-02-05 21:47:00,8.6,-25.2,30.53,SSE,160,2.7,3.1,19,0.00,,,0.00,VWS V14.01,2013-02-06 03:47:00,
2013-02-05 21:52:00,8.2,-25.5,30.53,SSE,167,4.0,4.0,19,0.00,,,0.00,VWS V14.01,2013-02-06 03:52:00,
2013-02-05 21:57:00,8.4,-25.4,30.55,SSE,168,4.0,4.0,19,0.00,,,0.00,VWS V14.01,2013-02-06 03:57:00,
2013-02-05 22:02:00,8.4,-25.4,30.55,SSE,160,3.6,3.6,19,0.00,,,0.00,VWS V14.01,2013-02-06 04:02:00,
2013-02-05 22:07:00,7.9,-25.8,30.55,SSE,156,0.0,0.0,19,0.00,,,0.00,VWS V14.01,2013-02-06 04:07:00,
2013-02-05 22:12:00,7.9,-25.8,30.53,SSE,156,0.0,0.0,19,0.00,,,0.00,VWS V14.01,2013-02-06 04:12:00,
2013-02-05 22:17:00,7.7,-26.0,30.53,SSE,156,0.0,0.0,19,0.00,,,0.00,VWS V14.01,2013-02-06 04:17:00,
2013-02-05 22:22:00,7.3,-26.3,30.53,SSE,156,0.0,0.0,19,0.00,,,0.00,VWS V14.01,2013-02-06 04:22:00,
2013-02-05 22:27:00,7.7,-26.0,30.53,SSE,161,0.0,0.0,19,0.00,,,0.00,VWS V14.01,2013-02-06 04:27:00,
2013-02-05 22:32:00,7.9,-25.8,30.53,SSE,167,0.0,0.0,19,0.00,,,0.00,VWS V14.01,2013-02-06 04:32:00,
2013-02-05 22:37:00,8.4,-25.4,30.53,South,169,0.0,0.0,19,0.00,,,0.00,VWS V14.01,2013-02-06 04:37:00,
2013-02-05 22:42:00,8.6,-25.2,30.55,South,175,0.0,0.0,19,0.00,,,0.00,VWS V14.01,2013-02-06 04:42:00,
2013-02-05 22:47:00,8.6,-25.2,30.55,South,175,0.0,0.0,19,0.00,,,0.00,VWS V14.01,2013-02-06 04:47:00,
2013-02-05 22:52:00,7.9,-25.8,30.55,South,175,0.0,0.0,19,0.00,,,0.00,VWS V14.01,2013-02-06 04:52:00,
2013-02-05 22:57:00,7.2,-26.4,30.55,South,175,0.0,0.0,19,0.00,,,0.00,VWS V14.01,2013-02-06 04:57:00,
2013-02-05 23:00:00,7.2,-26.4,30.55,South,175,0.0,0.0,19,0.00,,,0.00,VWS V14.01,2013-02-06 05:00:00,
2013-02-05 23:06:00,6.8,-26.7,30.55,South,175,0.0,0.0,19,0.00,,,0.00,VWS V14.01,2013-02-06 05:06:00,
2013-02-05 23:11:00,6.3,-27.2,30.55,South,175,0.0,0.0,19,0.00,,,0.00,VWS V14.01,2013-02-06 05:11:00,
2013-02-05 23:16:00,5.5,-27.8,30.55,South,175,0.0,0.0,19,0.00,,,0.00,VWS V14.01,2013-02-06 05:16:00,
2013-02-05 23:21:00,5.0,-28.2,30.55,South,175,0.0,0.0,19,0.00,,,0.00,VWS V14.01,2013-02-06 05:21:00,
2013-02-05 23:26:00,4.1,-29.0,30.55,South,175,0.0,0.0,19,0.00,,,0.00,VWS V14.01,2013-02-06 05:26:00,
2013-02-05 23:31:00,4.5,-28.7,30.55,South,175,0.0,0.0,19,0.00,,,0.00,VWS V14.01,2013-02-06 05:31:00,
2013-02-05 23:36:00,5.0,-28.2,30.55,South,175,0.0,0.0,19,0.00,,,0.00,VWS V14.01,2013-02-06 05:36:00,
2013-02-05 23:41:00,5.0,-28.2,30.55,South,175,0.0,0.0,19,0.00,,,0.00,VWS V14.01,2013-02-06 05:41:00,
2013-02-05 23:46:00,4.3,-28.8,30.55,South,175,0.0,0.0,19,0.00,,,0.00,VWS V14.01,2013-02-06 05:46:00,
2013-02-05 23:51:00,3.7,-29.3,30.55,South,175,0.0,0.0,19,0.00,,,0.00,VWS V14.01,2013-02-06 05:51:00,
2013-02-05 23:56:00,3.7,-29.3,30.55,South,175,0.0,0.0,19,0.00,,,0.00,VWS V14.01,2013-02-06 05:56:00,